createdAt,value
2019-05-17T00:01:37.543Z,16.87
2019-05-17T00:04:08.303Z,16.67
2019-05-17T00:06:40.728Z,15.97
2019-05-17T00:09:11.107Z,17.00
2019-05-17T00:11:41.628Z,16.83
2019-05-17T00:14:11.947Z,17.77
2019-05-17T00:16:42.384Z,17.83
2019-05-17T00:19:12.780Z,16.73
2019-05-17T00:21:43.221Z,17.23
2019-05-17T00:24:13.663Z,17.70
2019-05-17T00:26:46.629Z,18.73
2019-05-17T00:29:17.315Z,18.67
2019-05-17T00:31:47.807Z,19.17
2019-05-17T00:34:18.168Z,18.80
2019-05-17T00:36:48.540Z,19.17
2019-05-17T00:39:18.852Z,19.37
2019-05-17T00:41:49.171Z,20.17
2019-05-17T00:44:19.647Z,20.10
2019-05-17T00:46:50.016Z,20.23
2019-05-17T00:49:20.456Z,20.77
2019-05-17T00:51:50.797Z,21.40
2019-05-17T00:54:21.312Z,20.27
2019-05-17T00:56:51.683Z,20.57
2019-05-17T00:59:22.044Z,21.07
2019-05-17T01:01:52.499Z,21.17
2019-05-17T01:04:22.952Z,21.10
2019-05-17T01:06:56.158Z,20.70
2019-05-17T01:09:27.358Z,21.43
2019-05-17T01:11:57.820Z,21.87
2019-05-17T01:14:28.181Z,20.43
2019-05-17T01:16:58.492Z,22.17
2019-05-17T01:19:28.824Z,21.93
2019-05-17T01:21:59.328Z,21.83
2019-05-17T01:24:29.627Z,21.43
2019-05-17T01:26:59.929Z,20.47
2019-05-17T01:29:30.208Z,21.97
2019-05-17T01:32:00.945Z,21.47
2019-05-17T01:34:31.312Z,21.90
2019-05-17T01:37:06.657Z,21.17
2019-05-17T01:39:37.641Z,23.27
2019-05-17T01:42:08.252Z,20.87
2019-05-17T01:44:38.592Z,22.60
2019-05-17T01:47:09.101Z,20.70
2019-05-17T01:49:39.463Z,21.60
2019-05-17T01:52:09.767Z,21.87
2019-05-17T01:54:40.077Z,22.43
2019-05-17T01:57:10.476Z,22.43
2019-05-17T01:59:40.841Z,21.90
2019-05-17T02:02:16.299Z,23.90
2019-05-17T02:04:46.819Z,24.50
2019-05-17T02:07:17.327Z,22.20
2019-05-17T02:09:47.849Z,22.73
2019-05-17T02:12:18.266Z,23.13
2019-05-17T02:14:48.708Z,23.50
2019-05-17T02:17:19.073Z,21.17
2019-05-17T02:19:49.576Z,23.20
2019-05-17T02:22:20.004Z,21.40
2019-05-17T02:24:50.594Z,21.63
2019-05-17T02:27:24.268Z,21.53
2019-05-17T02:29:53.764Z,22.40
2019-05-17T02:32:24.220Z,21.83
2019-05-17T02:34:55.732Z,21.67
2019-05-17T02:37:26.200Z,21.67
2019-05-17T02:40:02.708Z,21.53
2019-05-17T02:42:29.028Z,20.80
2019-05-17T02:45:02.655Z,21.97
2019-05-17T02:47:33.601Z,20.30
2019-05-17T02:50:05.405Z,21.77
2019-05-17T02:52:37.262Z,21.93
2019-05-17T02:55:12.457Z,21.70
2019-05-17T02:57:43.359Z,22.50
2019-05-17T03:00:14.339Z,22.17
2019-05-17T03:02:44.802Z,22.30
2019-05-17T03:05:15.630Z,22.20
2019-05-17T03:07:46.097Z,21.43
2019-05-17T03:10:24.138Z,21.87
2019-05-17T03:12:48.810Z,22.73
2019-05-17T03:15:19.261Z,22.83
2019-05-17T03:17:49.727Z,22.70
2019-05-17T03:20:22.987Z,21.30
2019-05-17T03:22:52.704Z,22.87
2019-05-17T03:25:23.880Z,21.27
2019-05-17T03:27:54.481Z,20.73
2019-05-17T03:30:26.194Z,22.70
2019-05-17T03:32:57.301Z,22.33
2019-05-17T03:35:28.030Z,22.03
2019-05-17T03:37:58.485Z,22.53
2019-05-17T03:41:01.402Z,22.10
2019-05-17T03:43:02.967Z,21.90
2019-05-17T03:45:34.205Z,22.20
2019-05-17T03:48:05.368Z,22.13
2019-05-17T03:50:35.922Z,22.17
2019-05-17T03:53:06.370Z,22.60
2019-05-17T03:55:36.730Z,21.87
2019-05-17T03:58:15.397Z,22.20
2019-05-17T04:00:45.749Z,22.40
2019-05-17T04:03:16.202Z,21.97
2019-05-17T04:05:46.643Z,21.83
2019-05-17T04:08:16.918Z,22.57
2019-05-17T04:10:47.378Z,22.90
2019-05-17T04:13:17.786Z,22.77
2019-05-17T04:15:48.170Z,22.60
2019-05-17T04:18:18.588Z,23.27
2019-05-17T04:20:49.046Z,22.67
2019-05-17T04:23:23.012Z,20.93
2019-05-17T04:25:53.157Z,22.43
2019-05-17T04:28:23.790Z,21.97
2019-05-17T04:30:54.174Z,22.87
2019-05-17T04:33:24.530Z,22.50
2019-05-17T04:35:54.932Z,23.00
2019-05-17T04:38:25.198Z,23.03
2019-05-17T04:40:55.959Z,22.20
2019-05-17T04:43:26.392Z,22.63
2019-05-17T04:45:56.777Z,22.83
2019-05-17T04:48:27.147Z,22.37
2019-05-17T04:50:57.574Z,23.57
2019-05-17T04:53:28.430Z,23.40
2019-05-17T04:55:58.870Z,23.73
2019-05-17T04:58:29.261Z,22.97
2019-05-17T05:00:59.698Z,22.23
2019-05-17T05:03:32.670Z,23.87
2019-05-17T05:06:03.381Z,25.47
2019-05-17T05:08:33.825Z,23.57
2019-05-17T05:11:04.444Z,22.87
2019-05-17T05:13:34.914Z,23.40
2019-05-17T05:16:05.238Z,24.40
2019-05-17T05:18:36.079Z,22.40
2019-05-17T05:21:06.509Z,24.03
2019-05-17T05:23:36.881Z,22.90
2019-05-17T05:26:07.249Z,22.53
2019-05-17T05:28:37.678Z,24.67
2019-05-17T05:31:08.057Z,23.90
2019-05-17T05:33:38.405Z,23.40
2019-05-17T05:36:08.818Z,23.57
2019-05-17T05:38:39.305Z,23.80
2019-05-17T05:41:12.066Z,24.10
2019-05-17T05:43:42.021Z,23.63
2019-05-17T05:46:12.549Z,23.93
2019-05-17T05:48:42.998Z,24.40
2019-05-17T05:51:13.886Z,24.57
2019-05-17T05:53:44.306Z,23.23
2019-05-17T05:56:14.993Z,24.00
2019-05-17T05:58:45.453Z,22.17
2019-05-17T06:01:15.758Z,22.87
2019-05-17T06:03:46.063Z,22.37
2019-05-17T06:06:16.432Z,23.63
2019-05-17T06:08:46.746Z,21.80
2019-05-17T06:11:18.242Z,24.00
2019-05-17T06:13:48.682Z,23.43
2019-05-17T06:16:19.062Z,22.47
2019-05-17T06:18:51.538Z,22.30
2019-05-17T06:21:22.642Z,23.43
2019-05-17T06:23:53.186Z,21.60
2019-05-17T06:26:23.874Z,23.57
2019-05-17T06:28:54.313Z,22.93
2019-05-17T06:31:24.738Z,22.00
2019-05-17T06:33:55.090Z,21.83
2019-05-17T06:36:25.534Z,22.17
2019-05-17T06:38:55.910Z,23.43
2019-05-17T06:41:26.310Z,22.53
2019-05-17T06:43:56.661Z,23.00
2019-05-17T06:46:27.070Z,22.93
2019-05-17T06:48:57.435Z,24.33
2019-05-17T06:51:27.845Z,23.97
2019-05-17T06:53:58.153Z,23.90
2019-05-17T06:56:28.522Z,20.77
2019-05-17T06:58:58.893Z,21.33
2019-05-17T07:01:29.306Z,21.00
2019-05-17T07:04:00.282Z,18.93
2019-05-17T07:06:32.742Z,19.07
2019-05-17T07:09:04.222Z,18.83
2019-05-17T07:11:34.714Z,18.37
2019-05-17T07:14:05.153Z,21.67
2019-05-17T07:16:35.434Z,18.80
2019-05-17T07:19:05.850Z,18.10
2019-05-17T07:21:36.193Z,18.33
2019-05-17T07:24:06.553Z,17.43
2019-05-17T07:26:39.231Z,18.50
2019-05-17T07:29:10.211Z,17.73
2019-05-17T07:31:40.657Z,18.87
2019-05-17T07:34:10.998Z,18.50
2019-05-17T07:36:41.321Z,18.03
2019-05-17T07:39:11.745Z,17.23
2019-05-17T07:41:42.110Z,17.37
2019-05-17T07:44:12.470Z,17.10
2019-05-17T07:46:42.889Z,17.37
2019-05-17T07:49:13.249Z,16.90
2019-05-17T07:51:43.597Z,17.63
2019-05-17T07:54:14.030Z,17.33
2019-05-17T07:56:44.443Z,16.07
2019-05-17T07:59:14.728Z,15.60
2019-05-17T08:01:45.178Z,15.70
2019-05-17T08:04:15.574Z,14.97
2019-05-17T08:06:45.930Z,16.20
2019-05-17T08:09:17.268Z,16.33
2019-05-17T08:11:50.047Z,15.20
2019-05-17T08:14:29.289Z,14.90
2019-05-17T08:16:51.724Z,14.77
2019-05-17T08:19:22.139Z,15.63
2019-05-17T08:21:52.520Z,16.30
2019-05-17T08:24:22.853Z,15.63
2019-05-17T08:26:53.462Z,13.93
2019-05-17T08:29:23.850Z,14.60
2019-05-17T08:31:54.194Z,13.40
2019-05-17T08:34:24.538Z,13.73
2019-05-17T08:36:54.904Z,13.83
2019-05-17T08:39:25.157Z,13.43
2019-05-17T08:41:55.470Z,13.57
2019-05-17T08:44:25.890Z,14.70
2019-05-17T08:46:56.163Z,14.77
2019-05-17T08:49:26.582Z,15.00
2019-05-17T08:51:59.337Z,14.37
2019-05-17T08:54:30.434Z,12.83
2019-05-17T08:57:01.307Z,13.43
2019-05-17T08:59:32.550Z,14.13
2019-05-17T09:02:02.836Z,14.00
2019-05-17T09:04:33.182Z,14.33
2019-05-17T09:07:05.662Z,12.97
2019-05-17T09:09:36.108Z,12.63
2019-05-17T09:12:06.514Z,11.83
2019-05-17T09:14:36.976Z,12.60
2019-05-17T09:17:07.263Z,12.97
2019-05-17T09:19:39.493Z,11.77
2019-05-17T09:22:10.495Z,12.40
2019-05-17T09:24:41.095Z,13.20
2019-05-17T09:27:11.567Z,12.57
2019-05-17T09:29:41.955Z,10.93
2019-05-17T09:32:12.318Z,13.10
2019-05-17T09:34:42.598Z,13.37
2019-05-17T09:37:15.699Z,12.67
2019-05-17T09:39:45.099Z,12.33
2019-05-17T09:42:15.459Z,12.37
2019-05-17T09:44:45.846Z,12.50
2019-05-17T09:47:16.122Z,12.03
2019-05-17T09:49:46.518Z,11.33
2019-05-17T09:52:16.867Z,10.80
2019-05-17T09:54:47.146Z,10.43
2019-05-17T09:57:17.505Z,10.07
2019-05-17T09:59:49.594Z,9.83
2019-05-17T10:02:20.480Z,9.73
2019-05-17T10:04:50.886Z,9.60
2019-05-17T10:07:21.231Z,8.50
2019-05-17T10:09:51.834Z,8.40
2019-05-17T10:12:22.266Z,7.80
2019-05-17T10:14:52.659Z,7.30
2019-05-17T10:17:22.955Z,7.50
2019-05-17T10:19:53.390Z,7.60
2019-05-17T10:22:23.866Z,8.27
2019-05-17T10:24:54.319Z,8.37
2019-05-17T10:27:24.730Z,7.80
2019-05-17T10:29:55.182Z,6.90
2019-05-17T10:32:25.445Z,5.73
2019-05-17T10:34:55.880Z,6.53
2019-05-17T10:37:26.210Z,5.87
2019-05-17T10:39:56.622Z,6.37
2019-05-17T10:42:27.035Z,7.40
2019-05-17T10:44:59.767Z,7.17
2019-05-17T10:47:30.114Z,6.87
2019-05-17T10:50:02.270Z,6.23
2019-05-17T10:52:32.644Z,6.00
2019-05-17T10:55:03.052Z,5.90
2019-05-17T10:57:33.477Z,6.27
2019-05-17T11:00:10.334Z,5.97
2019-05-17T11:02:41.235Z,5.83
2019-05-17T11:05:12.204Z,5.60
2019-05-17T11:07:42.647Z,5.40
2019-05-17T11:10:13.677Z,5.67
2019-05-17T11:12:44.097Z,5.30
2019-05-17T11:15:15.051Z,4.83
2019-05-17T11:17:45.458Z,5.17
2019-05-17T11:20:16.052Z,5.50
2019-05-17T11:22:46.375Z,4.50
2019-05-17T11:25:17.243Z,4.63
2019-05-17T11:27:47.790Z,5.23
2019-05-17T11:30:19.419Z,6.63
2019-05-17T11:32:49.783Z,6.17
2019-05-17T11:35:20.166Z,5.80
2019-05-17T11:37:50.547Z,5.20
2019-05-17T11:40:21.175Z,5.53
2019-05-17T11:42:51.567Z,4.70
2019-05-17T11:45:27.571Z,4.60
2019-05-17T11:47:54.235Z,5.00
2019-05-17T11:50:24.638Z,4.93
2019-05-17T11:52:55.011Z,4.80
2019-05-17T11:55:25.420Z,4.73
2019-05-17T11:57:55.778Z,5.37
2019-05-17T12:00:26.525Z,4.37
2019-05-17T12:02:56.831Z,4.77
2019-05-17T12:05:27.260Z,4.87
2019-05-17T12:07:57.676Z,4.47
2019-05-17T12:10:28.024Z,5.10
2019-05-17T12:12:58.483Z,4.90
2019-05-17T12:15:43.813Z,4.37
2019-05-17T12:18:01.099Z,4.13
2019-05-17T12:20:31.522Z,3.73
2019-05-17T12:23:03.147Z,3.70
2019-05-17T12:25:33.547Z,4.20
2019-05-17T12:28:03.980Z,4.40
2019-05-17T12:30:34.403Z,3.87
2019-05-17T12:33:04.824Z,3.77
2019-05-17T12:35:35.183Z,4.10
2019-05-17T12:38:05.584Z,3.70
2019-05-17T12:40:36.010Z,3.87
2019-05-17T12:43:06.279Z,4.50
2019-05-17T12:45:36.635Z,4.40
2019-05-17T12:48:06.979Z,4.00
2019-05-17T12:50:37.447Z,4.77
2019-05-17T12:53:07.817Z,4.10
2019-05-17T12:55:38.183Z,4.63
2019-05-17T12:58:08.556Z,4.30
2019-05-17T13:00:38.928Z,3.77
2019-05-17T13:03:09.312Z,3.60
2019-05-17T13:05:39.742Z,3.63
2019-05-17T13:08:10.081Z,3.70
2019-05-17T13:10:40.425Z,4.00
2019-05-17T13:13:10.832Z,3.87
2019-05-17T13:15:41.201Z,4.00
2019-05-17T13:18:11.545Z,3.97
2019-05-17T13:20:41.918Z,4.37
2019-05-17T13:23:12.514Z,4.03
2019-05-17T13:25:42.772Z,4.17
2019-05-17T13:28:13.202Z,4.17
2019-05-17T13:30:43.547Z,4.17
2019-05-17T13:33:13.903Z,4.50
2019-05-17T13:35:45.292Z,4.20
2019-05-17T13:38:15.553Z,5.17
2019-05-17T13:40:46.128Z,4.57
2019-05-17T13:43:16.597Z,4.33
2019-05-17T13:45:47.025Z,4.50
2019-05-17T13:48:17.377Z,4.67
2019-05-17T13:50:51.634Z,4.37
2019-05-17T13:53:20.316Z,5.23
2019-05-17T13:55:50.660Z,4.90
2019-05-17T13:58:21.165Z,5.30
2019-05-17T14:00:51.531Z,6.60
2019-05-17T14:03:21.914Z,7.03
2019-05-17T14:05:52.339Z,7.63
2019-05-17T14:08:22.749Z,7.40
2019-05-17T14:10:53.117Z,7.37
2019-05-17T14:13:23.969Z,6.97
2019-05-17T14:15:54.402Z,7.13
2019-05-17T14:18:24.748Z,6.83
2019-05-17T14:20:55.076Z,7.03
2019-05-17T14:23:25.591Z,6.90
2019-05-17T14:25:56.027Z,6.50
2019-05-17T14:28:26.428Z,7.80
2019-05-17T14:30:56.789Z,7.43
2019-05-17T14:33:27.123Z,7.60
2019-05-17T14:35:57.545Z,7.43
2019-05-17T14:38:27.941Z,7.00
2019-05-17T14:41:06.307Z,6.67
2019-05-17T14:43:31.742Z,6.27
2019-05-17T14:46:03.430Z,5.80
2019-05-17T14:48:33.740Z,5.30
2019-05-17T14:51:04.180Z,5.27
2019-05-17T14:53:35.515Z,4.97
2019-05-17T14:56:05.954Z,5.37
2019-05-17T14:58:36.209Z,5.03
2019-05-17T15:01:06.643Z,6.37
2019-05-17T15:03:36.973Z,5.70
2019-05-17T15:06:07.394Z,5.07
2019-05-17T15:08:37.756Z,5.50
2019-05-17T15:11:08.141Z,5.93
2019-05-17T15:13:38.893Z,6.10
2019-05-17T15:16:09.360Z,6.30
2019-05-17T15:18:39.705Z,6.30
2019-05-17T15:21:10.087Z,7.03
2019-05-17T15:23:40.437Z,7.20
2019-05-17T15:26:10.837Z,7.03
2019-05-17T15:28:41.216Z,7.23
2019-05-17T15:31:11.580Z,7.57
2019-05-17T15:33:41.866Z,7.30
2019-05-17T15:36:12.224Z,6.83
2019-05-17T15:38:42.497Z,7.33
2019-05-17T15:41:12.801Z,7.53
2019-05-17T15:43:43.114Z,8.17
2019-05-17T15:46:13.520Z,8.73
2019-05-17T15:48:43.877Z,7.60
2019-05-17T15:51:14.293Z,7.87
2019-05-17T15:53:44.633Z,7.07
2019-05-17T15:56:14.900Z,7.37
2019-05-17T15:58:46.332Z,7.50
2019-05-17T16:01:16.740Z,7.70
2019-05-17T16:03:47.164Z,7.83
2019-05-17T16:06:17.582Z,7.40
2019-05-17T16:08:48.445Z,8.30
2019-05-17T16:11:18.704Z,7.57
2019-05-17T16:13:49.260Z,7.27
2019-05-17T16:16:19.692Z,6.47
2019-05-17T16:18:51.001Z,7.00
2019-05-17T16:21:21.429Z,6.63
2019-05-17T16:23:51.772Z,7.50
2019-05-17T16:26:22.178Z,7.67
2019-05-17T16:28:52.613Z,7.47
2019-05-17T16:31:22.932Z,7.17
2019-05-17T16:33:53.368Z,7.80
2019-05-17T16:36:23.712Z,7.60
2019-05-17T16:38:54.076Z,8.13
2019-05-17T16:41:24.445Z,7.30
2019-05-17T16:43:54.804Z,8.10
2019-05-17T16:46:25.123Z,8.20
2019-05-17T16:48:55.509Z,8.73
2019-05-17T16:51:25.844Z,8.47
2019-05-17T16:53:56.185Z,8.53
2019-05-17T16:56:26.513Z,9.73
2019-05-17T16:58:57.004Z,9.13
2019-05-17T17:01:27.421Z,10.03
2019-05-17T17:03:57.881Z,9.73
2019-05-17T17:06:28.275Z,9.93
2019-05-17T17:08:58.720Z,10.70
2019-05-17T17:11:29.128Z,10.07
2019-05-17T17:13:59.475Z,10.27
2019-05-17T17:16:29.768Z,10.00
2019-05-17T17:19:00.032Z,9.80
2019-05-17T17:21:30.404Z,10.97
2019-05-17T17:24:00.737Z,11.23
2019-05-17T17:26:31.193Z,11.00
2019-05-17T17:29:01.544Z,11.00
2019-05-17T17:31:32.007Z,11.87
2019-05-17T17:34:02.513Z,11.23
2019-05-17T17:36:32.987Z,11.93
2019-05-17T17:39:05.817Z,11.67
2019-05-17T17:41:36.185Z,11.13
2019-05-17T17:44:06.714Z,11.10
2019-05-17T17:46:37.057Z,12.27
2019-05-17T17:49:07.492Z,12.33
2019-05-17T17:51:37.966Z,13.17
2019-05-17T17:54:08.409Z,11.50
2019-05-17T17:56:38.773Z,12.53
2019-05-17T17:59:09.105Z,11.33
2019-05-17T18:01:39.461Z,11.87
2019-05-17T18:04:09.746Z,12.53
2019-05-17T18:06:40.130Z,11.93
2019-05-17T18:09:10.557Z,11.80
2019-05-17T18:11:41.061Z,11.37
2019-05-17T18:14:13.743Z,11.70
2019-05-17T18:16:43.579Z,11.70
2019-05-17T18:19:13.849Z,12.60
2019-05-17T18:21:44.352Z,11.63
2019-05-17T18:24:14.843Z,12.13
2019-05-17T18:26:45.367Z,11.37
2019-05-17T18:29:15.808Z,11.20
2019-05-17T18:31:46.271Z,11.47
2019-05-17T18:34:16.697Z,11.43
2019-05-17T18:36:47.153Z,12.40
2019-05-17T18:39:17.565Z,15.40
2019-05-17T18:41:48.032Z,12.03
2019-05-17T18:44:27.276Z,11.60
2019-05-17T18:46:50.490Z,12.53
2019-05-17T18:49:20.945Z,12.63
2019-05-17T18:51:51.418Z,12.37
2019-05-17T18:54:21.743Z,12.77
2019-05-17T18:56:52.045Z,12.43
2019-05-17T18:59:22.474Z,13.93
2019-05-17T19:01:52.926Z,13.03
2019-05-17T19:04:23.283Z,12.63
2019-05-17T19:06:54.674Z,13.73
2019-05-17T19:09:25.122Z,13.27
2019-05-17T19:11:55.593Z,12.83
2019-05-17T19:14:26.021Z,13.27
2019-05-17T19:16:56.313Z,12.00
2019-05-17T19:19:26.816Z,13.80
2019-05-17T19:21:57.299Z,13.20
2019-05-17T19:24:27.946Z,12.80
2019-05-17T19:26:58.314Z,13.30
2019-05-17T19:29:28.740Z,14.13
2019-05-17T19:31:59.026Z,12.93
2019-05-17T19:34:29.413Z,12.83
2019-05-17T19:36:59.703Z,13.63
2019-05-17T19:39:30.046Z,13.10
2019-05-17T19:42:00.472Z,13.37
2019-05-17T19:44:30.882Z,13.83
2019-05-17T19:47:01.255Z,13.47
2019-05-17T19:49:31.734Z,14.10
2019-05-17T19:52:02.099Z,14.30
2019-05-17T19:54:32.474Z,14.63
2019-05-17T19:57:02.754Z,13.63
2019-05-17T19:59:33.070Z,15.30
2019-05-17T20:02:06.399Z,15.30
2019-05-17T20:04:35.583Z,15.67
2019-05-17T20:07:06.171Z,15.03
2019-05-17T20:09:36.562Z,16.40
2019-05-17T20:12:07.006Z,15.43
2019-05-17T20:14:37.354Z,15.97
2019-05-17T20:17:07.719Z,14.47
2019-05-17T20:19:38.122Z,14.80
2019-05-17T20:22:08.485Z,15.70
2019-05-17T20:24:38.824Z,16.87
2019-05-17T20:27:09.278Z,17.07
2019-05-17T20:29:39.588Z,16.57
2019-05-17T20:32:09.947Z,15.53
2019-05-17T20:34:40.326Z,16.33
2019-05-17T20:37:10.695Z,15.93
2019-05-17T20:39:42.041Z,17.90
2019-05-17T20:42:12.446Z,15.80
2019-05-17T20:44:42.970Z,16.43
2019-05-17T20:47:14.290Z,15.83
2019-05-17T20:49:44.583Z,16.63
2019-05-17T20:52:15.326Z,16.23
2019-05-17T20:54:47.171Z,16.27
2019-05-17T20:57:17.587Z,16.57
2019-05-17T20:59:47.883Z,15.03
2019-05-17T21:02:18.234Z,16.70
2019-05-17T21:04:48.548Z,16.10
2019-05-17T21:07:18.887Z,16.90
2019-05-17T21:09:49.191Z,17.10
2019-05-17T21:12:20.527Z,16.33
2019-05-17T21:14:50.801Z,16.43
2019-05-17T21:17:21.075Z,17.07
2019-05-17T21:19:51.415Z,15.73
2019-05-17T21:22:21.679Z,15.90
2019-05-17T21:24:52.038Z,15.17
2019-05-17T21:27:22.394Z,16.90
2019-05-17T21:29:52.671Z,16.47
2019-05-17T21:32:23.031Z,16.03
2019-05-17T21:34:53.394Z,16.13
2019-05-17T21:37:23.768Z,15.27
2019-05-17T21:39:54.079Z,16.13
2019-05-17T21:42:24.406Z,16.47
2019-05-17T21:44:54.747Z,17.47
2019-05-17T21:47:25.083Z,16.67
2019-05-17T21:49:55.350Z,18.30
2019-05-17T21:52:25.684Z,18.70
2019-05-17T21:54:56.120Z,17.93
2019-05-17T21:57:26.498Z,18.13
2019-05-17T21:59:56.791Z,17.23
2019-05-17T22:02:27.283Z,16.50
2019-05-17T22:04:57.639Z,16.50
2019-05-17T22:07:28.088Z,16.60
2019-05-17T22:09:58.355Z,16.40
2019-05-17T22:12:28.635Z,16.33
2019-05-17T22:14:58.918Z,15.10
2019-05-17T22:17:29.287Z,15.87
2019-05-17T22:20:00.588Z,16.80
2019-05-17T22:22:30.870Z,16.97
2019-05-17T22:25:01.151Z,14.97
2019-05-17T22:27:31.438Z,15.70
2019-05-17T22:30:01.794Z,16.50
2019-05-17T22:32:32.067Z,16.30
2019-05-17T22:35:02.346Z,15.10
2019-05-17T22:37:32.667Z,15.13
2019-05-17T22:40:03.094Z,16.37
2019-05-17T22:42:34.243Z,16.13
2019-05-17T22:45:04.895Z,15.50
2019-05-17T22:47:35.243Z,14.93
2019-05-17T22:50:05.827Z,15.23
2019-05-17T22:52:36.116Z,15.07
2019-05-17T22:55:06.651Z,14.80
2019-05-17T22:57:36.959Z,15.30
2019-05-17T23:00:09.053Z,14.73
2019-05-17T23:02:41.018Z,15.33
2019-05-17T23:05:11.471Z,14.43
2019-05-17T23:07:41.771Z,15.70
2019-05-17T23:10:12.286Z,14.27
2019-05-17T23:12:42.567Z,14.97
2019-05-17T23:15:13.407Z,16.00
2019-05-17T23:17:43.703Z,14.53
2019-05-17T23:20:14.211Z,14.40
2019-05-17T23:22:44.588Z,15.10
2019-05-17T23:25:15.011Z,14.57
2019-05-17T23:27:45.267Z,14.20
2019-05-17T23:30:15.791Z,13.87
2019-05-17T23:32:46.142Z,14.97
2019-05-17T23:35:16.495Z,14.97
2019-05-17T23:37:46.869Z,15.90
2019-05-17T23:40:17.439Z,16.00
2019-05-17T23:42:47.774Z,16.53
2019-05-17T23:45:18.064Z,15.50
2019-05-17T23:47:48.326Z,17.93
2019-05-17T23:50:18.758Z,16.73
2019-05-17T23:52:49.055Z,15.57
2019-05-17T23:55:19.492Z,14.90
2019-05-17T23:57:49.769Z,15.40
